Terminal Aerodrome Forecast
Issued by NWS Boston, MA

Home | Current Version | Previous Version | Text Only | Print | Product List | Glossary On
Versions: 1 2 3 4 5 6 7 8 9 10 11 12 13 14 15 16 17 18 19 20 21 22 23 24
000
FTUS41 KBOX 281120
TAFBDL
TAF
KBDL 281120Z 2812/2918 19004KT 1/2SM FG VV002
     FM281300 21004KT P6SM BKN050
     FM281900 25008KT P6SM FEW250
     FM290900 VRB03KT P6SM VCSH BKN120
     FM291400 22005KT P6SM VCSH BKN025
     FM291700 27010KT P6SM BKN025=

USA.gov is the U.S. government's official web portal to all federal, state and local government web resources and services.